Time;durP1;ratioP1;P1;durP2;ratioP2;P2;SDS_P1;SDS_P2;PMS_P1;PMS_P2;Temp;Humidity;BMP_temperature;BMP_pressure;BME280_temperature;BME280_humidity;BME280_pressure;Samples;Min_cycle;Max_cycle;Signal;HPM_P1;HPM_P2
2023/10/13 00:01:23;;;;;;;;;9.00;7.67;;;;;20.61;80.21;100672.47;5081847;27;45390;-83
2023/10/13 00:03:54;;;;;;;;;8.67;7.67;;;;;20.67;80.30;100696.16;5089769;27;46022;-79
2023/10/13 00:06:19;;;;;;;;;9.00;9.00;;;;;20.66;80.30;100682.81;5082398;27;45437;-81
2023/10/13 00:08:45;;;;;;;;;7.67;6.00;;;;;20.65;80.16;100683.81;5079558;28;45321;-83
2023/10/13 00:11:15;;;;;;;;;14.33;8.00;;;;;20.60;80.22;100679.72;5078137;28;45247;-79
2023/10/13 00:13:50;;;;;;;;;8.00;8.00;;;;;20.62;80.35;100676.84;5075711;27;48285;-81
2023/10/13 00:16:27;;;;;;;;;9.00;7.33;;;;;20.44;80.21;100652.44;5094609;27;45340;-81
2023/10/13 00:18:55;;;;;;;;;9.00;6.33;;;;;20.11;80.45;100602.53;5097759;27;45451;-79
2023/10/13 00:21:35;;;;;;;;;10.00;7.67;;;;;20.52;80.48;100666.09;5098023;27;45227;-79
2023/10/13 00:24:14;;;;;;;;;11.67;10.67;;;;;20.36;80.37;100655.03;5080534;27;45532;-78
2023/10/13 00:26:42;;;;;;;;;9.67;7.00;;;;;20.41;80.79;100674.34;5078626;27;45367;-84
2023/10/13 00:31:40;;;;;;;;;8.67;8.00;;;;;20.27;81.40;100667.56;5079171;28;45239;-85
2023/10/13 00:34:11;;;;;;;;;10.33;7.33;;;;;20.11;81.25;100640.31;5094406;27;48158;-86
2023/10/13 00:36:36;;;;;;;;;9.33;8.33;;;;;20.30;81.33;100675.34;5100872;27;45367;-81
2023/10/13 00:39:03;;;;;;;;;6.33;6.00;;;;;20.32;81.74;100669.84;5097479;27;47502;-82
2023/10/13 00:44:16;;;;;;;;;9.33;8.00;;;;;20.29;81.43;100664.69;5080472;27;45527;-85
2023/10/13 00:46:44;;;;;;;;;10.33;8.00;;;;;20.19;81.89;100648.56;5097970;27;45380;-79
2023/10/13 00:49:10;;;;;;;;;11.67;9.00;;;;;20.17;81.83;100649.66;5098231;27;45336;-81
2023/10/13 00:51:40;;;;;;;;;13.00;8.33;;;;;20.19;81.90;100656.66;5095388;27;45589;-80
2023/10/13 00:54:12;;;;;;;;;7.67;7.67;;;;;20.11;82.16;100637.63;5080134;27;45455;-78
2023/10/13 00:56:49;;;;;;;;;9.67;7.67;;;;;20.10;82.45;100649.41;5095034;27;45348;-82
2023/10/13 00:59:23;;;;;;;;;8.00;8.00;;;;;20.06;82.74;100647.16;5076954;27;45401;-85
2023/10/13 01:01:53;;;;;;;;;10.00;7.00;;;;;20.00;82.80;100635.09;5078084;27;45318;-81
2023/10/13 01:04:19;;;;;;;;;12.00;10.00;;;;;19.97;83.07;100636.22;5076051;27;45539;-82
2023/10/13 01:06:46;;;;;;;;;10.33;8.67;;;;;19.91;83.43;100639.50;5076922;28;45450;-80
2023/10/13 01:09:16;;;;;;;;;7.67;7.67;;;;;20.00;83.24;100637.78;5080366;27;45303;-80
2023/10/13 01:11:52;;;;;;;;;14.33;7.33;;;;;19.94;83.48;100633.81;5094839;27;45445;-80
2023/10/13 01:14:20;;;;;;;;;8.67;8.67;;;;;19.85;83.83;100610.41;5077241;27;45276;-82
2023/10/13 01:16:46;;;;;;;;;8.33;7.33;;;;;19.79;83.75;100602.88;5101161;27;45451;-86
2023/10/13 01:19:20;;;;;;;;;9.00;8.00;;;;;19.81;83.68;100609.00;5089595;27;46289;-84
2023/10/13 01:21:47;;;;;;;;;10.00;9.67;;;;;19.82;83.94;100608.00;5077097;28;45345;-80
2023/10/13 01:24:13;;;;;;;;;8.33;8.33;;;;;19.86;84.27;100625.59;5075723;27;45460;-85
2023/10/13 01:26:39;;;;;;;;;12.00;11.00;;;;;19.88;84.16;100622.75;5095702;27;45334;-79
2023/10/13 01:29:12;;;;;;;;;8.00;8.00;;;;;19.83;83.75;100614.25;5097274;27;45435;-79
2023/10/13 01:31:48;;;;;;;;;13.00;9.00;;;;;19.85;84.02;100615.78;5097485;27;45395;-79
2023/10/13 01:34:24;;;;;;;;;14.33;9.33;;;;;19.88;84.17;100611.94;5077175;27;45497;-78
2023/10/13 01:36:52;;;;;;;;;10.67;6.33;;;;;19.78;84.11;100601.16;5079337;27;45386;-80
2023/10/13 01:39:21;;;;;;;;;14.00;11.33;;;;;19.83;83.95;100601.59;5077196;27;45169;-83
2023/10/13 01:41:55;;;;;;;;;11.33;9.33;;;;;19.79;84.39;100596.63;5089392;27;45314;-81
2023/10/13 01:44:21;;;;;;;;;11.33;9.00;;;;;19.76;84.19;100586.97;5078426;27;45989;-81
2023/10/13 01:46:47;;;;;;;;;14.00;9.33;;;;;19.54;84.19;100553.06;5077001;27;45479;-79
2023/10/13 01:49:15;;;;;;;;;9.00;8.67;;;;;19.88;84.33;100602.00;5098294;27;45369;-82
2023/10/13 01:51:40;;;;;;;;;12.67;11.67;;;;;19.87;84.17;100594.91;5098982;27;45467;-81
2023/10/13 01:54:11;;;;;;;;;10.00;8.00;;;;;19.88;83.92;100585.81;5096183;27;45237;-81
2023/10/13 01:56:42;;;;;;;;;11.67;9.00;;;;;19.87;83.88;100578.72;5089862;27;45447;-80
2023/10/13 01:59:09;;;;;;;;;12.00;8.33;;;;;19.82;84.16;100575.59;5076654;27;45529;-79
2023/10/13 02:01:34;;;;;;;;;12.67;9.00;;;;;19.70;84.06;100552.50;5078434;27;45242;-82
2023/10/13 02:04:04;;;;;;;;;10.00;9.33;;;;;19.82;84.07;100575.59;5077127;27;45486;-84
2023/10/13 02:06:34;;;;;;;;;14.00;10.00;;;;;19.73;84.13;100555.75;5077487;28;45368;-90
2023/10/13 02:09:13;;;;;;;;;10.67;9.00;;;;;19.76;84.36;100565.38;5080395;27;45168;-86
2023/10/13 02:11:45;;;;;;;;;9.00;7.67;;;;;19.72;83.80;100558.59;5077014;28;45456;-81
2023/10/13 02:14:11;;;;;;;;;12.33;10.33;;;;;19.62;84.51;100536.16;5076667;27;46111;-85
2023/10/13 02:16:36;;;;;;;;;10.67;9.33;;;;;19.70;84.68;100545.25;5076990;28;45693;-82
2023/10/13 02:19:05;;;;;;;;;10.00;10.00;;;;;19.74;84.36;100540.41;5093504;27;45258;-81
2023/10/13 02:21:38;;;;;;;;;8.67;7.00;;;;;19.70;84.61;100533.59;5095962;27;45516;-81
2023/10/13 02:24:12;;;;;;;;;13.00;11.00;;;;;19.70;84.91;100530.91;5095405;27;47322;-81
2023/10/13 02:26:39;;;;;;;;;13.00;10.33;;;;;19.64;84.48;100517.97;5113673;27;45424;-80
2023/10/13 02:29:07;;;;;;;;;7.67;7.67;;;;;19.55;84.46;100495.44;5099536;27;45443;-81
2023/10/13 02:31:36;;;;;;;;;14.00;11.33;;;;;19.67;84.47;100517.72;5100145;27;45214;-81
2023/10/13 02:34:06;;;;;;;;;18.00;11.00;;;;;19.51;84.72;100482.34;5082451;27;45426;-88
2023/10/13 02:36:46;;;;;;;;;11.33;9.33;;;;;19.63;84.67;100500.09;5081114;28;45429;-83
2023/10/13 02:39:13;;;;;;;;;8.33;8.33;;;;;19.57;84.90;100488.06;5086776;27;45377;-79
2023/10/13 02:41:40;;;;;;;;;12.00;12.00;;;;;19.53;85.05;100496.53;5086149;28;45547;-82
2023/10/13 02:44:06;;;;;;;;;15.33;11.00;;;;;19.56;84.96;100510.63;5083943;27;45409;-78
2023/10/13 02:46:35;;;;;;;;;13.33;11.67;;;;;19.56;84.94;100509.78;5081182;27;45251;-78
2023/10/13 02:49:10;;;;;;;;;13.00;10.00;;;;;19.48;85.17;100496.13;5101479;27;45822;-80
2023/10/13 02:51:36;;;;;;;;;9.00;9.00;;;;;19.42;84.95;100487.63;5107065;27;45167;-82
2023/10/13 02:54:09;;;;;;;;;10.00;8.33;;;;;19.47;85.04;100495.28;5084215;27;46354;-81
2023/10/13 02:56:35;;;;;;;;;10.00;10.00;;;;;19.47;84.96;100499.81;5081226;28;45226;-80
2023/10/13 02:59:04;;;;;;;;;8.67;7.33;;;;;19.52;85.19;100505.63;5095735;27;46231;-85
2023/10/13 03:01:33;;;;;;;;;16.00;11.67;;;;;19.25;85.24;100469.47;5098949;27;45593;-81
2023/10/13 03:04:00;;;;;;;;;9.67;9.67;;;;;19.45;85.13;100508.91;5083417;27;45268;-79
2023/10/13 03:06:35;;;;;;;;;14.67;9.67;;;;;19.33;84.97;100482.25;5079359;27;46282;-80
2023/10/13 03:09:18;;;;;;;;;8.33;7.33;;;;;19.38;84.77;100485.34;5093617;27;45291;-77
2023/10/13 03:11:50;;;;;;;;;12.33;9.00;;;;;19.43;84.58;100486.63;5098676;27;45326;-79
2023/10/13 03:14:31;;;;;;;;;13.67;12.00;;;;;19.43;84.68;100486.63;5092698;27;47485;-80
2023/10/13 03:17:04;;;;;;;;;11.00;9.67;;;;;19.40;84.86;100473.47;5078112;28;45381;-79
2023/10/13 03:19:32;;;;;;;;;11.00;7.67;;;;;19.47;84.84;100479.09;5097103;27;45403;-79
2023/10/13 03:22:07;;;;;;;;;12.00;10.67;;;;;19.45;84.91;100471.16;5097319;27;45539;-79
2023/10/13 03:24:35;;;;;;;;;10.67;10.67;;;;;19.27;84.70;100442.38;5077179;27;46047;-80
2023/10/13 03:27:08;;;;;;;;;9.33;9.33;;;;;19.41;84.81;100469.75;5079454;28;45467;-79
2023/10/13 03:29:38;;;;;;;;;13.67;10.00;;;;;19.40;84.84;100468.06;5099813;27;45484;-78
2023/10/13 03:32:11;;;;;;;;;9.00;9.00;;;;;19.38;84.88;100467.31;5100636;27;45253;-79
2023/10/13 03:34:40;;;;;;;;;9.67;7.67;;;;;19.38;84.95;100453.84;5097513;27;45780;-78
2023/10/13 03:37:13;;;;;;;;;15.33;11.67;;;;;19.28;84.81;100431.47;5089339;27;45685;-79
2023/10/13 03:39:38;;;;;;;;;12.00;11.33;;;;;19.35;84.29;100432.56;5098021;27;45480;-80
2023/10/13 03:42:05;;;;;;;;;10.67;9.33;;;;;19.39;84.52;100431.28;5098242;27;45300;-79
2023/10/13 03:44:31;;;;;;;;;14.00;12.00;;;;;19.40;83.88;100432.13;5096948;27;47858;-78
2023/10/13 03:46:57;;;;;;;;;13.33;11.33;;;;;19.37;83.96;100430.56;5094342;27;45392;-81
2023/10/13 03:49:25;;;;;;;;;11.00;10.33;;;;;19.43;83.16;100424.59;5078653;28;45363;-80
2023/10/13 03:51:54;;;;;;;;;15.33;12.33;;;;;19.45;83.24;100432.56;5079745;27;45321;-80
2023/10/13 03:54:20;;;;;;;;;11.67;11.67;;;;;19.41;82.65;100421.22;5078198;27;45287;-80
2023/10/13 03:56:45;;;;;;;;;11.00;9.67;;;;;19.46;82.48;100423.47;5078166;28;45427;-83
2023/10/13 04:04:11;;;;;;;;;12.33;12.33;;;;;19.47;80.81;100408.97;5077158;27;45304;-79
2023/10/13 04:17:15;;;;;;;;;14.33;10.33;;;;;19.50;78.86;100402.44;5078794;28;45347;-81
2023/10/13 04:23:17;;;;;;;;;14.00;13.00;;;;;19.37;78.54;100359.59;5079202;27;45365;-80
2023/10/13 04:36:11;;;;;;;;;8.00;8.00;;;;;19.50;76.61;100372.75;5098721;27;45462;-79
2023/10/13 04:38:55;;;;;;;;;13.00;11.33;;;;;19.47;75.83;100364.97;5098113;27;45503;-80
2023/10/13 04:41:23;;;;;;;;;10.67;10.00;;;;;19.34;74.71;100341.88;5097034;27;45275;-79
2023/10/13 04:44:38;;;;;;;;;11.67;9.67;;;;;19.31;74.44;100331.41;5083765;27;45378;-80
2023/10/13 04:49:26;;;;;;;;;14.67;11.67;;;;;19.39;73.61;100336.88;5077640;28;45369;-80
2023/10/13 04:51:59;;;;;;;;;14.33;10.00;;;;;19.44;73.39;100344.56;5080540;28;45437;-78
2023/10/13 04:54:33;;;;;;;;;11.33;10.67;;;;;19.35;73.04;100321.16;5078163;27;45499;-82
2023/10/13 05:51:46;;;;;;;;;13.67;13.67;;;;;19.40;70.43;100268.50;5086207;27;45788;-80
2023/10/13 06:29:53;;;;;;;;;22.67;18.00;;;;;19.20;71.29;100303.78;5100052;27;45518;-81
2023/10/13 06:32:19;;;;;;;;;20.67;19.00;;;;;19.18;71.35;100295.84;5115168;27;45548;-82
2023/10/13 06:34:45;;;;;;;;;18.00;15.67;;;;;19.15;71.32;100279.97;5088837;27;45435;-83
2023/10/13 06:40:27;;;;;;;;;17.00;17.00;;;;;19.27;71.05;100299.47;5075706;27;45353;-82
2023/10/13 06:42:55;;;;;;;;;17.33;16.67;;;;;19.30;71.28;100300.06;5094728;27;45484;-80
2023/10/13 06:45:22;;;;;;;;;24.67;23.67;;;;;19.34;70.91;100305.97;5087739;27;46055;-81
2023/10/13 06:47:52;;;;;;;;;18.00;15.00;;;;;19.44;70.66;100307.66;5095404;27;45389;-86
2023/10/13 06:50:24;;;;;;;;;14.67;12.67;;;;;19.48;70.46;100296.53;5099265;27;45737;-79
2023/10/13 06:52:50;;;;;;;;;18.67;17.33;;;;;19.48;70.01;100288.47;5091690;27;46914;-80
2023/10/13 06:55:34;;;;;;;;;15.33;14.67;;;;;19.42;69.88;100279.97;5076434;27;45468;-77
2023/10/13 06:58:00;;;;;;;;;19.00;15.67;;;;;19.39;69.65;100265.94;5084443;27;45515;-81
2023/10/13 07:00:29;;;;;;;;;16.67;16.67;;;;;19.46;69.46;100277.81;5097791;27;45600;-79
2023/10/13 07:03:05;;;;;;;;;20.67;16.67;;;;;19.55;68.91;100281.50;5098068;27;45417;-80
2023/10/13 07:05:34;;;;;;;;;18.33;16.00;;;;;19.66;68.74;100300.16;5097205;27;46163;-82
2023/10/13 07:08:01;;;;;;;;;19.67;17.00;;;;;19.59;67.89;100277.50;5089336;27;45388;-80
2023/10/13 07:10:30;;;;;;;;;17.33;17.00;;;;;19.71;68.02;100287.06;5077251;28;45438;-81
2023/10/13 07:12:59;;;;;;;;;14.33;13.00;;;;;19.71;67.44;100289.78;5090179;27;45664;-82
2023/10/13 07:15:27;;;;;;;;;16.67;15.00;;;;;19.76;67.16;100298.25;5079857;27;45552;-83
2023/10/13 07:17:59;;;;;;;;;19.33;16.33;;;;;19.69;66.87;100289.09;5088571;27;45558;-82
2023/10/13 07:23:02;;;;;;;;;16.00;15.67;;;;;19.89;66.29;100301.41;5079773;28;45648;-85
2023/10/13 07:25:37;;;;;;;;;14.00;13.33;;;;;19.97;65.55;100297.97;5079562;27;46374;-82
2023/10/13 07:28:08;;;;;;;;;14.67;14.33;;;;;19.99;65.01;100291.41;5080513;27;45627;-81
2023/10/13 07:30:49;;;;;;;;;17.00;16.00;;;;;20.06;64.32;100286.25;5076691;27;45398;-79
2023/10/13 07:33:15;;;;;;;;;19.33;16.33;;;;;20.16;64.11;100291.56;5076540;28;45308;-81
2023/10/13 07:35:41;;;;;;;;;15.67;13.00;;;;;20.13;64.29;100286.47;5078180;27;45439;-79
2023/10/13 07:38:08;;;;;;;;;16.50;13.00;;;;;20.10;63.44;100278.69;5091675;27;45564;-79
2023/10/13 07:43:03;;;;;;;;;17.67;16.67;;;;;20.21;63.10;100289.25;5078101;27;45507;-80
2023/10/13 07:45:40;;;;;;;;;16.00;15.00;;;;;20.34;62.65;100305.91;5080881;27;48158;-83
2023/10/13 07:48:12;;;;;;;;;13.67;13.67;;;;;20.35;62.30;100298.66;5095217;27;45373;-80
2023/10/13 07:50:40;;;;;;;;;17.67;16.33;;;;;20.34;62.20;100305.91;5096357;27;45861;-85
2023/10/13 07:53:22;;;;;;;;;17.67;16.33;;;;;20.32;62.27;100297.13;5097147;27;45520;-83
2023/10/13 07:55:49;;;;;;;;;19.00;16.00;;;;;20.32;61.99;100302.53;5084897;27;45291;-84
2023/10/13 07:58:15;;;;;;;;;16.67;12.67;;;;;20.22;62.03;100277.44;5078122;27;45422;-83
2023/10/13 08:05:58;;;;;;;;;13.67;13.67;;;;;20.49;61.15;100292.72;5092406;27;46032;-82
2023/10/13 08:08:34;;;;;;;;;16.67;13.00;;;;;20.66;61.00;100304.50;5082525;27;45419;-79
2023/10/13 08:11:08;;;;;;;;;14.33;14.00;;;;;20.56;60.51;100281.13;5077529;27;45369;-86
2023/10/13 08:13:37;;;;;;;;;14.00;14.00;;;;;20.75;59.87;100292.75;5077495;27;45452;-79
2023/10/13 08:16:08;;;;;;;;;17.33;16.00;;;;;20.93;59.55;100280.00;5077044;27;45908;-82
2023/10/13 08:18:35;;;;;;;;;10.33;10.33;;;;;20.84;59.21;100265.63;5091795;27;45368;-80
2023/10/13 08:21:05;;;;;;;;;17.00;16.00;;;;;21.09;59.14;100288.22;5102936;27;45309;-78
2023/10/13 08:23:58;;;;;;;;;18.67;18.00;;;;;21.18;58.44;100291.81;5105800;27;45375;-81
2023/10/13 08:32:14;;;;;;;;;15.67;15.67;;;;;21.30;57.88;100279.72;5099483;27;45428;-79
2023/10/13 08:34:59;;;;;;;;;16.67;16.00;;;;;21.36;57.77;100268.28;5095884;27;45324;-81
2023/10/13 09:07:09;;;;;;;;;11.00;10.33;;;;;22.21;52.82;100241.88;5091956;27;45361;-80
2023/10/13 09:12:19;;;;;;;;;14.00;12.67;;;;;22.49;52.95;100241.53;5077164;27;45616;-79
2023/10/13 09:14:59;;;;;;;;;14.00;11.00;;;;;22.54;52.26;100237.31;5084576;27;45377;-81
2023/10/13 09:25:35;;;;;;;;;13.50;11.25;;;;;22.92;51.23;100233.00;5080737;27;45455;-81
2023/10/13 09:28:14;;;;;;;;;12.33;12.33;;;;;23.06;50.82;100233.31;5075708;27;45453;-79
2023/10/13 09:30:53;;;;;;;;;12.00;10.50;;;;;23.06;50.49;100230.59;5091973;27;46821;-84
2023/10/13 09:33:28;;;;;;;;;13.67;9.33;;;;;23.08;50.46;100225.84;5076937;27;45847;-79
2023/10/13 09:35:54;;;;;;;;;13.00;11.33;;;;;23.11;50.76;100220.88;5077246;27;45437;-82
2023/10/13 09:38:20;;;;;;;;;16.67;12.33;;;;;22.99;50.74;100216.03;5081304;27;45321;-81
2023/10/13 09:40:49;;;;;;;;;9.25;9.25;;;;;22.91;51.06;100220.44;5080160;27;48278;-80
2023/10/13 09:43:19;;;;;;;;;11.00;8.00;;;;;22.90;51.17;100218.75;5080327;27;45356;-81
2023/10/13 09:48:35;;;;;;;;;17.67;14.67;;;;;23.22;49.89;100219.66;5080777;27;45310;-81
2023/10/13 09:51:08;;;;;;;;;9.33;9.33;;;;;23.16;49.89;100193.22;5081918;27;45641;-88
2023/10/13 09:53:37;;;;;;;;;10.25;9.75;;;;;23.17;49.65;100178.63;5082794;27;45251;-87
2023/10/13 09:56:19;;;;;;;;;9.33;9.33;;;;;23.48;49.59;100206.63;5081402;27;45329;-86
2023/10/13 09:59:14;;;;;;;;;11.50;11.50;;;;;23.61;48.56;100192.50;5081124;27;45382;-80
2023/10/13 10:01:57;;;;;;;;;9.25;8.75;;;;;23.81;48.81;100210.00;5067901;27;45375;-85
2023/10/13 10:04:23;;;;;;;;;15.50;12.25;;;;;23.98;47.87;100210.75;5104566;27;45467;-82
2023/10/13 10:07:00;;;;;;;;;13.00;10.00;;;;;23.98;47.93;100190.88;5102401;27;45353;-82
2023/10/13 10:09:43;;;;;;;;;13.25;12.00;;;;;23.88;47.82;100180.25;5089740;27;45345;-80
2023/10/13 10:12:21;;;;;;;;;15.50;15.00;;;;;24.15;48.34;100186.16;5079460;28;46892;-82
2023/10/13 10:15:10;;;;;;;;;15.00;13.50;;;;;24.19;47.29;100182.88;5079973;28;45224;-79
2023/10/13 10:17:43;;;;;;;;;6.75;6.75;;;;;24.10;46.87;100152.22;5082835;27;45248;-83
2023/10/13 10:20:19;;;;;;;;;9.75;8.50;;;;;24.42;46.92;100167.38;5087082;27;45339;-82
2023/10/13 10:22:58;;;;;;;;;9.25;9.25;;;;;24.64;45.74;100178.38;5079377;27;47952;-85
2023/10/13 10:25:35;;;;;;;;;16.00;12.75;;;;;24.75;45.46;100171.63;5082831;27;45326;-87
2023/10/13 10:28:05;;;;;;;;;9.50;7.00;;;;;24.94;44.45;100166.44;5083360;27;45180;-81
2023/10/13 10:30:35;;;;;;;;;11.75;8.75;;;;;25.03;44.92;100141.91;5081662;27;45432;-80
2023/10/13 10:33:03;;;;;;;;;14.50;13.50;;;;;25.25;44.10;100163.50;5079515;27;45433;-81
2023/10/13 10:35:32;;;;;;;;;14.50;11.00;;;;;25.36;44.09;100177.66;5078171;28;45423;-83
2023/10/13 10:38:11;;;;;;;;;15.25;12.50;;;;;25.55;44.38;100193.41;5081786;28;45362;-84
2023/10/13 10:40:51;;;;;;;;;17.75;11.50;;;;;25.72;43.72;100183.97;5097096;27;44635;-86
2023/10/13 10:43:17;;;;;;;;;12.50;9.00;;;;;26.01;43.10;100179.41;5112930;27;45258;-83
2023/10/13 10:45:48;;;;;;;;;15.25;13.50;;;;;26.22;42.37;100176.66;5099885;27;45892;-87
2023/10/13 10:48:17;;;;;;;;;12.50;11.75;;;;;26.49;42.63;100176.88;5099549;27;45329;-85
2023/10/13 10:51:13;;;;;;;;;12.25;12.25;;;;;26.74;42.28;100167.19;5100135;27;45491;-86
2023/10/13 10:53:44;;;;;;;;;13.00;11.75;;;;;27.02;41.60;100178.91;5102603;27;45234;-89
2023/10/13 10:56:23;;;;;;;;;18.75;15.00;;;;;27.07;41.43;100164.66;5098383;27;45451;-85
2023/10/13 10:58:54;;;;;;;;;13.20;12.20;;;;;27.35;39.83;100177.38;5099605;27;45674;-80
2023/10/13 11:01:33;;;;;;;;;14.25;12.00;;;;;27.35;40.86;100161.84;5082569;27;45516;-86
2023/10/13 11:04:14;;;;;;;;;11.75;11.75;;;;;27.22;40.74;100164.53;5079962;27;45310;-87
2023/10/13 11:06:45;;;;;;;;;10.80;10.80;;;;;27.26;39.63;100149.41;5080596;27;45332;-86
2023/10/13 11:09:31;;;;;;;;;12.60;10.40;;;;;27.79;39.94;100179.59;5082747;28;45349;-79
2023/10/13 11:12:26;;;;;;;;;12.00;12.00;;;;;28.27;38.63;100176.72;5082980;27;45449;-88
2023/10/13 11:15:02;;;;;;;;;15.00;13.40;;;;;28.58;38.64;100178.78;5084399;27;46338;-87
2023/10/13 11:17:41;;;;;;;;;13.00;11.00;;;;;28.70;37.76;100161.50;5088754;28;45311;-82
2023/10/13 11:20:18;;;;;;;;;11.80;10.60;;;;;28.87;37.68;100164.63;5081772;27;45319;-81
2023/10/13 11:22:52;;;;;;;;;9.80;9.80;;;;;28.98;37.31;100161.22;5079719;28;45263;-80
2023/10/13 11:25:34;;;;;;;;;11.20;11.20;;;;;28.85;37.88;100146.72;5079341;27;46156;-84
2023/10/13 11:28:28;;;;;;;;;11.20;11.20;;;;;28.88;37.42;100162.72;5078088;28;45454;-87
2023/10/13 11:31:10;;;;;;;;;10.20;9.20;;;;;28.67;37.70;100128.25;5086679;27;45427;-88
2023/10/13 11:33:36;;;;;;;;;11.20;10.00;;;;;28.93;37.65;100132.84;5079368;27;45436;-79
2023/10/13 11:36:13;;;;;;;;;12.00;10.75;;;;;28.89;37.25;100118.72;5081419;28;45284;-80
2023/10/13 11:38:43;;;;;;;;;11.60;11.60;;;;;29.00;37.68;100147.31;5076293;28;45371;-83
2023/10/13 11:41:12;;;;;;;;;13.40;11.60;;;;;28.83;37.60;100126.94;5077900;27;45333;-87
2023/10/13 11:46:19;;;;;;;;;9.20;9.20;;;;;28.40;38.39;100116.53;5078744;27;45290;-86
2023/10/13 11:48:46;;;;;;;;;18.40;11.20;;;;;28.15;38.40;100121.81;5079527;27;45702;-81
2023/10/13 11:51:26;;;;;;;;;12.00;10.60;;;;;27.78;39.37;100126.84;5078238;27;45344;-80
2023/10/13 11:53:55;;;;;;;;;14.00;11.00;;;;;27.17;40.09;100106.94;5077582;28;45373;-80
2023/10/13 11:56:21;;;;;;;;;14.75;13.75;;;;;26.93;40.90;100120.06;5077178;27;47179;-81
2023/10/13 11:58:47;;;;;;;;;9.75;9.25;;;;;26.78;41.39;100132.16;5076595;27;45977;-83
2023/10/13 12:06:35;;;;;;;;;12.00;10.75;;;;;26.39;42.34;100100.91;5089014;27;45669;-81
2023/10/13 12:11:48;;;;;;;;;14.25;14.25;;;;;26.41;42.27;100093.34;5081852;27;45482;-83
2023/10/13 12:15:25;;;;;;;;;8.75;8.25;;;;;26.54;42.49;100107.06;5081540;27;45491;-80
2023/10/13 12:17:13;;;;;;;;;9.75;9.75;;;;;26.63;42.14;100103.13;5064195;27;45273;-81
2023/10/13 12:19:39;;;;;;;;;10.00;9.00;;;;;26.81;42.00;100094.38;5077539;28;45464;-82
2023/10/13 12:22:07;;;;;;;;;85.75;77.25;;;;;26.88;41.60;100103.47;5078307;28;45421;-83
2023/10/13 12:27:23;;;;;;;;;4.00;1.00;;;;;26.72;42.02;100068.34;5081723;27;45270;-82
2023/10/13 12:29:51;;;;;;;;;10.20;9.00;;;;;26.86;42.14;100072.81;5081954;27;45307;-83
2023/10/13 12:32:22;;;;;;;;;14.25;10.00;;;;;27.18;40.80;100056.75;5078034;28;45440;-80
2023/10/13 12:54:35;;;;;;;;;17.00;13.20;;;;;30.65;36.31;100049.28;5079528;27;45399;-80
2023/10/13 12:56:56;;;;;;;;;10.40;7.40;;;;;31.75;33.54;100037.97;5082350;27;45531;-80
2023/10/13 12:59:26;;;;;;;;;9.40;9.40;;;;;31.68;33.91;100047.16;5077385;28;46906;-80
2023/10/13 13:01:52;;;;;;;;;11.00;10.40;;;;;31.07;34.79;100048.28;5076004;28;45489;-80
2023/10/13 13:04:20;;;;;;;;;6.60;6.60;;;;;30.52;35.87;100042.84;5082029;27;45480;-80
2023/10/13 13:06:48;;;;;;;;;10.60;10.60;;;;;30.19;36.19;100048.69;5079800;27;45310;-81
2023/10/13 13:09:13;;;;;;;;;13.20;11.00;;;;;29.91;36.77;100064.78;5098764;27;46277;-84
2023/10/13 13:11:42;;;;;;;;;11.50;8.25;;;;;29.54;37.64;100066.56;5105732;27;45266;-82
2023/10/13 13:14:08;;;;;;;;;10.40;7.80;;;;;29.03;38.24;100054.63;5087382;27;45463;-84
2023/10/13 13:16:35;;;;;;;;;8.60;8.60;;;;;28.54;38.94;100047.06;5086154;27;45446;-81
2023/10/13 13:19:03;;;;;;;;;9.40;7.80;;;;;28.11;39.57;100044.81;5102497;27;45973;-80
2023/10/13 13:21:29;;;;;;;;;5.40;5.40;;;;;27.82;39.66;100042.56;5101246;27;45492;-82
2023/10/13 13:23:58;;;;;;;;;10.25;8.00;;;;;27.39;40.07;100009.34;5091414;27;46507;-81
2023/10/13 13:26:23;;;;;;;;;9.00;7.20;;;;;27.29;40.18;100010.56;5077612;27;45321;-81
2023/10/13 13:28:52;;;;;;;;;10.75;9.25;;;;;27.14;40.70;100012.66;5089047;27;45235;-82
2023/10/13 13:31:18;;;;;;;;;10.00;8.00;;;;;27.04;41.66;100021.25;5076839;27;45551;-81
2023/10/13 13:33:44;;;;;;;;;6.80;6.80;;;;;26.98;41.54;100029.41;5077470;27;45511;-83
2023/10/13 13:36:13;;;;;;;;;8.75;8.00;;;;;26.81;41.69;100018.00;5082411;27;45450;-85
2023/10/13 13:38:40;;;;;;;;;9.40;8.00;;;;;26.68;42.44;100013.34;5077049;27;45356;-81
2023/10/13 13:41:16;;;;;;;;;6.80;6.80;;;;;26.39;42.55;99991.84;5095247;27;45596;-81
2023/10/13 13:46:27;;;;;;;;;6.25;4.50;;;;;26.24;43.09;99989.22;5077614;28;45473;-84
2023/10/13 13:49:00;;;;;;;;;9.50;8.75;;;;;26.20;43.05;100009.75;5078044;27;46620;-83
2023/10/13 13:51:27;;;;;;;;;14.20;9.80;;;;;26.15;43.77;100010.34;5085793;27;45557;-82
2023/10/13 13:53:54;;;;;;;;;16.00;9.75;;;;;26.00;43.57;100009.63;5090013;27;45670;-80
2023/10/13 13:56:19;;;;;;;;;10.00;10.00;;;;;25.94;43.76;100004.16;5076198;27;45280;-82
2023/10/13 13:58:49;;;;;;;;;11.50;10.25;;;;;25.90;44.02;100009.13;5075414;27;46122;-80
2023/10/13 14:01:18;;;;;;;;;12.75;11.75;;;;;25.83;44.15;100009.09;5089027;27;45249;-81
2023/10/13 14:03:47;;;;;;;;;12.00;9.50;;;;;25.73;44.44;100002.31;5085644;27;45312;-81
2023/10/13 14:06:18;;;;;;;;;10.75;10.75;;;;;25.65;43.86;99997.81;5078134;27;45487;-83
2023/10/13 14:08:44;;;;;;;;;13.00;12.00;;;;;25.58;44.58;99994.22;5088479;27;46097;-81
2023/10/13 14:11:13;;;;;;;;;8.80;7.20;;;;;25.61;44.55;99985.66;5090649;27;45424;-85
2023/10/13 14:13:48;;;;;;;;;11.50;11.50;;;;;25.56;44.83;99990.84;5093010;27;45461;-82
2023/10/13 14:16:19;;;;;;;;;18.50;15.25;;;;;25.51;44.90;99993.31;5092430;27;45366;-82
2023/10/13 14:18:48;;;;;;;;;13.75;11.75;;;;;25.20;45.37;99952.88;5086389;27;45467;-82
2023/10/13 14:21:16;;;;;;;;;9.50;9.50;;;;;25.27;45.39;99981.84;5078071;27;45457;-80
2023/10/13 14:23:47;;;;;;;;;12.50;10.75;;;;;25.21;45.48;99979.88;5089570;27;45441;-80
2023/10/13 14:26:13;;;;;;;;;12.50;10.25;;;;;25.13;45.58;99980.03;5092170;27;45346;-83
2023/10/13 14:28:50;;;;;;;;;9.00;8.50;;;;;25.11;45.94;99984.81;5083889;27;45189;-80
2023/10/13 14:31:15;;;;;;;;;12.80;10.80;;;;;25.05;46.28;99984.75;5085941;27;45372;-80
2023/10/13 14:33:41;;;;;;;;;12.75;11.75;;;;;24.90;45.97;99969.31;5085458;27;45425;-78
2023/10/13 14:36:10;;;;;;;;;10.75;9.75;;;;;24.99;46.13;99972.72;5084133;27;53040;-82
2023/10/13 14:38:35;;;;;;;;;11.25;11.25;;;;;24.92;46.30;99978.09;5093692;27;45555;-84
2023/10/13 14:41:00;;;;;;;;;10.25;10.25;;;;;24.83;46.60;99957.50;5084142;27;62117;-80
2023/10/13 14:43:28;;;;;;;;;13.50;12.00;;;;;24.70;46.86;99939.16;5090127;27;62542;-82
2023/10/13 14:45:54;;;;;;;;;13.25;10.00;;;;;24.85;46.85;99965.47;5095560;27;45623;-81
2023/10/13 14:48:19;;;;;;;;;14.00;12.00;;;;;24.73;46.90;99961.56;5098998;27;45415;-84
2023/10/13 14:50:45;;;;;;;;;14.00;12.50;;;;;24.71;46.99;99976.19;5100742;27;45335;-87
2023/10/13 14:53:11;;;;;;;;;13.25;10.75;;;;;24.71;47.05;99973.47;5084986;28;45394;-79
2023/10/13 14:55:39;;;;;;;;;12.75;11.25;;;;;24.62;47.55;99950.19;5085769;27;45399;-83
2023/10/13 14:58:07;;;;;;;;;15.25;13.25;;;;;24.64;47.77;99952.72;5087625;27;45924;-79
2023/10/13 15:00:34;;;;;;;;;8.60;8.60;;;;;24.65;47.30;99966.09;5078027;27;45484;-79
2023/10/13 15:03:06;;;;;;;;;20.00;10.75;;;;;24.67;47.71;99972.19;5078007;27;45583;-81
2023/10/13 15:05:33;;;;;;;;;12.75;12.75;;;;;24.55;47.88;99940.25;5076661;27;45876;-82
2023/10/13 15:07:58;;;;;;;;;12.25;12.25;;;;;24.63;47.74;99941.00;5081766;27;47271;-84
2023/10/13 15:10:25;;;;;;;;;16.25;14.50;;;;;24.71;47.05;99943.56;5094679;27;45544;-82
2023/10/13 15:12:50;;;;;;;;;15.00;12.00;;;;;24.73;47.82;99942.53;5087110;27;45403;-86
2023/10/13 15:15:16;;;;;;;;;13.00;11.50;;;;;24.72;47.76;99938.97;5080406;27;54324;-85
2023/10/13 15:17:44;;;;;;;;;18.00;14.50;;;;;24.70;47.68;99924.72;5098588;27;46025;-87